Time;durP1;ratioP1;P1;durP2;ratioP2;P2;SDS_P1;SDS_P2;PMS_P1;PMS_P2;Temp;Humidity;BMP_temperature;BMP_pressure;BME280_temperature;BME280_humidity;BME280_pressure;Samples;Min_cycle;Max_cycle;Signal;HPM_P1;HPM_P2
2023/09/12 00:00:09;;;;;;;0.20;0.20;;;;;;;;;;4918232;29;20521;-61
2023/09/12 00:02:38;;;;;;;0.30;0.30;;;;;;;;;;4915873;29;20043;-64
2023/09/12 00:05:04;;;;;;;0.20;0.20;;;;;;;;;;4925588;29;20023;-64
2023/09/12 00:07:29;;;;;;;0.30;0.30;;;;;;;;;;4921021;29;20031;-60
2023/09/12 00:09:55;;;;;;;0.20;0.20;;;;;;;;;;4922868;29;20275;-65
2023/09/12 00:12:22;;;;;;;0.30;0.30;;;;;;;;;;4920860;29;20043;-63
2023/09/12 00:14:47;;;;;;;0.30;0.30;;;;;;;;;;4923646;29;20036;-60
2023/09/12 00:17:12;;;;;;;0.20;0.20;;;;;;;;;;4918029;29;20330;-61
2023/09/12 00:19:38;;;;;;;0.30;0.30;;;;;;;;;;4917659;29;20469;-59
2023/09/12 00:22:03;;;;;;;0.30;0.30;;;;;;;;;;4919010;29;20466;-58
2023/09/12 00:24:29;;;;;;;0.30;0.30;;;;;;;;;;4923773;29;20043;-59
2023/09/12 00:26:54;;;;;;;0.30;0.30;;;;;;;;;;4923093;29;20783;-58
2023/09/12 00:29:19;;;;;;;0.28;0.28;;;;;;;;;;4917524;29;20706;-60
2023/09/12 00:31:45;;;;;;;0.22;0.22;;;;;;;;;;4922452;29;20038;-65
2023/09/12 00:34:15;;;;;;;0.20;0.20;;;;;;;;;;4927046;29;20052;-60
2023/09/12 00:36:40;;;;;;;0.28;0.28;;;;;;;;;;4918090;29;20035;-64
2023/09/12 00:39:06;;;;;;;0.30;0.30;;;;;;;;;;4921126;29;20028;-60
2023/09/12 00:41:31;;;;;;;0.20;0.20;;;;;;;;;;4921527;29;20036;-60
2023/09/12 00:43:58;;;;;;;0.20;0.20;;;;;;;;;;4925649;29;20412;-60
2023/09/12 00:46:23;;;;;;;0.30;0.30;;;;;;;;;;4920401;29;20044;-59
2023/09/12 00:48:49;;;;;;;0.30;0.30;;;;;;;;;;4920673;29;20334;-60
2023/09/12 00:51:15;;;;;;;0.30;0.30;;;;;;;;;;4923526;29;20027;-61
2023/09/12 00:53:41;;;;;;;0.30;0.30;;;;;;;;;;4921528;28;20114;-61
2023/09/12 00:56:06;;;;;;;0.20;0.20;;;;;;;;;;4923329;29;20119;-60
2023/09/12 00:58:31;;;;;;;0.20;0.20;;;;;;;;;;4920890;29;20023;-59
2023/09/12 01:00:57;;;;;;;0.30;0.30;;;;;;;;;;4923685;29;20051;-60
2023/09/12 01:03:22;;;;;;;0.20;0.20;;;;;;;;;;4923949;29;20320;-64
2023/09/12 01:05:48;;;;;;;0.30;0.30;;;;;;;;;;4921523;29;20466;-59
2023/09/12 01:08:13;;;;;;;0.20;0.20;;;;;;;;;;4918568;29;20062;-61
2023/09/12 01:10:39;;;;;;;0.20;0.20;;;;;;;;;;4920307;29;20531;-61
2023/09/12 01:13:05;;;;;;;0.20;0.20;;;;;;;;;;4922780;29;20040;-59
2023/09/12 01:15:30;;;;;;;0.22;0.22;;;;;;;;;;4938662;28;20474;-63
2023/09/12 01:17:56;;;;;;;0.20;0.20;;;;;;;;;;4902108;29;20042;-60
2023/09/12 01:20:30;;;;;;;0.20;0.20;;;;;;;;;;4925693;29;20370;-60
2023/09/12 01:23:15;;;;;;;0.20;0.20;;;;;;;;;;4925770;29;20075;-60
2023/09/12 01:25:40;;;;;;;0.30;0.30;;;;;;;;;;4926908;29;20036;-62
2023/09/12 01:28:07;;;;;;;0.30;0.30;;;;;;;;;;4921869;29;20027;-62
2023/09/12 01:30:34;;;;;;;0.30;0.30;;;;;;;;;;4927330;29;20032;-61
2023/09/12 01:33:00;;;;;;;0.30;0.30;;;;;;;;;;4918652;29;20032;-59
2023/09/12 01:35:25;;;;;;;0.20;0.20;;;;;;;;;;4948155;28;20027;-59
2023/09/12 01:37:51;;;;;;;0.30;0.30;;;;;;;;;;4930164;29;20429;-59
2023/09/12 01:40:17;;;;;;;0.20;0.20;;;;;;;;;;4904675;29;20032;-63
2023/09/12 01:42:46;;;;;;;0.30;0.30;;;;;;;;;;4925069;29;20056;-62
2023/09/12 01:45:13;;;;;;;0.30;0.30;;;;;;;;;;4927975;29;20115;-60
2023/09/12 01:47:39;;;;;;;0.30;0.30;;;;;;;;;;4930122;29;20071;-58
2023/09/12 01:50:05;;;;;;;0.28;0.28;;;;;;;;;;4926413;28;20530;-59
2023/09/12 01:52:31;;;;;;;0.30;0.30;;;;;;;;;;4917881;29;20032;-61
2023/09/12 01:54:58;;;;;;;0.30;0.30;;;;;;;;;;4920705;29;20032;-62
2023/09/12 01:57:23;;;;;;;0.20;0.20;;;;;;;;;;4926381;29;20454;-59
2023/09/12 01:59:49;;;;;;;0.30;0.30;;;;;;;;;;4924987;29;20019;-63
2023/09/12 02:02:15;;;;;;;0.30;0.30;;;;;;;;;;4920013;29;20023;-60
2023/09/12 02:04:40;;;;;;;0.28;0.28;;;;;;;;;;4925551;29;20119;-59
2023/09/12 02:07:05;;;;;;;0.30;0.30;;;;;;;;;;4922071;29;20456;-62
2023/09/12 02:09:30;;;;;;;0.20;0.20;;;;;;;;;;4922207;29;20031;-63
2023/09/12 02:11:56;;;;;;;0.25;0.25;;;;;;;;;;4920454;29;20039;-60
2023/09/12 02:14:21;;;;;;;0.30;0.30;;;;;;;;;;4922482;29;20032;-59
2023/09/12 02:16:46;;;;;;;0.20;0.20;;;;;;;;;;4924305;29;20028;-59
2023/09/12 02:19:12;;;;;;;0.30;0.30;;;;;;;;;;4923125;29;20032;-60
2023/09/12 02:21:37;;;;;;;0.30;0.30;;;;;;;;;;4925034;29;20031;-59
2023/09/12 02:24:03;;;;;;;0.20;0.20;;;;;;;;;;4917277;29;20032;-60
2023/09/12 02:26:28;;;;;;;0.25;0.25;;;;;;;;;;4924362;29;20056;-61
2023/09/12 02:28:53;;;;;;;0.20;0.20;;;;;;;;;;4919877;29;20032;-62
2023/09/12 02:31:18;;;;;;;0.30;0.30;;;;;;;;;;4925033;29;20047;-59
2023/09/12 02:33:44;;;;;;;0.20;0.20;;;;;;;;;;4919912;29;20036;-61
2023/09/12 02:36:10;;;;;;;0.20;0.20;;;;;;;;;;4920155;29;20123;-63
2023/09/12 02:38:35;;;;;;;0.30;0.30;;;;;;;;;;4928228;29;20122;-59
2023/09/12 02:41:02;;;;;;;0.20;0.20;;;;;;;;;;4922456;29;20028;-60
2023/09/12 02:43:27;;;;;;;0.20;0.20;;;;;;;;;;4924236;29;20044;-63
2023/09/12 02:45:53;;;;;;;0.20;0.20;;;;;;;;;;4920877;29;20028;-60
2023/09/12 02:48:18;;;;;;;0.20;0.20;;;;;;;;;;4937580;28;20517;-61
2023/09/12 02:50:44;;;;;;;0.20;0.20;;;;;;;;;;4919931;29;20046;-60
2023/09/12 02:53:09;;;;;;;0.30;0.30;;;;;;;;;;4923826;29;20028;-60
2023/09/12 02:55:39;;;;;;;0.20;0.20;;;;;;;;;;4920476;29;20097;-63
2023/09/12 02:58:04;;;;;;;0.20;0.20;;;;;;;;;;4920666;29;20027;-62
2023/09/12 03:00:29;;;;;;;0.20;0.20;;;;;;;;;;4922350;29;20031;-60
2023/09/12 03:02:54;;;;;;;0.20;0.20;;;;;;;;;;4919884;29;20039;-62
2023/09/12 03:05:20;;;;;;;0.20;0.20;;;;;;;;;;4920870;29;20410;-60
2023/09/12 03:07:45;;;;;;;0.20;0.20;;;;;;;;;;4923359;29;20090;-61
2023/09/12 03:10:10;;;;;;;0.20;0.20;;;;;;;;;;4918192;29;20044;-62
2023/09/12 03:12:36;;;;;;;0.20;0.20;;;;;;;;;;4924333;29;20081;-60
2023/09/12 03:15:02;;;;;;;0.30;0.30;;;;;;;;;;4926987;29;20023;-60
2023/09/12 03:17:28;;;;;;;0.30;0.30;;;;;;;;;;4920131;29;20043;-60
2023/09/12 03:19:53;;;;;;;0.30;0.30;;;;;;;;;;4917834;29;20111;-63
2023/09/12 03:22:18;;;;;;;0.20;0.20;;;;;;;;;;4922612;29;20082;-62
2023/09/12 03:24:45;;;;;;;0.20;0.20;;;;;;;;;;4922460;29;20032;-60
2023/09/12 03:27:10;;;;;;;0.30;0.30;;;;;;;;;;4906902;29;20486;-65
2023/09/12 03:29:35;;;;;;;0.30;0.30;;;;;;;;;;4924876;29;20037;-61
2023/09/12 03:32:01;;;;;;;0.20;0.20;;;;;;;;;;4923308;29;20119;-62
2023/09/12 03:34:26;;;;;;;0.30;0.30;;;;;;;;;;4917635;29;20142;-62
2023/09/12 03:36:52;;;;;;;0.30;0.30;;;;;;;;;;4926944;29;20060;-60
2023/09/12 03:39:17;;;;;;;0.20;0.20;;;;;;;;;;4923865;29;20119;-63
2023/09/12 03:41:42;;;;;;;0.20;0.20;;;;;;;;;;4922052;29;20028;-60
2023/09/12 03:44:08;;;;;;;0.30;0.30;;;;;;;;;;4923019;29;20508;-60
2023/09/12 03:46:34;;;;;;;0.30;0.30;;;;;;;;;;4923085;29;20028;-61
2023/09/12 03:48:59;;;;;;;0.30;0.30;;;;;;;;;;4917318;29;20028;-63
2023/09/12 03:51:24;;;;;;;0.22;0.22;;;;;;;;;;4922741;29;20036;-61
2023/09/12 03:53:50;;;;;;;0.30;0.30;;;;;;;;;;4921837;29;20044;-60
2023/09/12 03:56:16;;;;;;;0.30;0.30;;;;;;;;;;4926589;29;20026;-63
2023/09/12 03:58:41;;;;;;;0.30;0.30;;;;;;;;;;4922984;29;20119;-62
2023/09/12 04:01:07;;;;;;;0.20;0.20;;;;;;;;;;4919485;29;20147;-62
2023/09/12 04:03:32;;;;;;;0.30;0.30;;;;;;;;;;4923015;29;20032;-61
2023/09/12 04:05:58;;;;;;;0.25;0.25;;;;;;;;;;4918995;29;20028;-60
2023/09/12 04:08:23;;;;;;;0.30;0.30;;;;;;;;;;4918457;29;20032;-60
2023/09/12 04:10:49;;;;;;;0.30;0.30;;;;;;;;;;4917755;29;20028;-60
2023/09/12 04:13:14;;;;;;;0.30;0.30;;;;;;;;;;4924208;29;20493;-62
2023/09/12 04:15:39;;;;;;;0.30;0.30;;;;;;;;;;4924059;29;20023;-66
2023/09/12 04:18:05;;;;;;;0.30;0.30;;;;;;;;;;4923452;29;20153;-60
2023/09/12 04:20:30;;;;;;;0.30;0.30;;;;;;;;;;4922097;29;20114;-60
2023/09/12 04:22:56;;;;;;;0.30;0.30;;;;;;;;;;4919769;29;20059;-59
2023/09/12 04:25:21;;;;;;;0.30;0.30;;;;;;;;;;4921949;29;20043;-59
2023/09/12 04:27:46;;;;;;;0.30;0.30;;;;;;;;;;4928099;28;20043;-62
2023/09/12 04:30:12;;;;;;;0.30;0.30;;;;;;;;;;4927665;29;20032;-61
2023/09/12 04:32:37;;;;;;;0.30;0.30;;;;;;;;;;4926087;29;20140;-59
2023/09/12 04:35:03;;;;;;;0.30;0.30;;;;;;;;;;4922673;29;20028;-60
2023/09/12 04:37:28;;;;;;;0.30;0.30;;;;;;;;;;4927077;29;20032;-60
2023/09/12 04:39:54;;;;;;;0.30;0.30;;;;;;;;;;4923257;29;20052;-59
2023/09/12 04:42:20;;;;;;;0.30;0.30;;;;;;;;;;4918149;29;20031;-58
2023/09/12 04:44:46;;;;;;;0.30;0.30;;;;;;;;;;4922360;29;20962;-60
2023/09/12 04:47:11;;;;;;;0.30;0.30;;;;;;;;;;4925464;29;20521;-59
2023/09/12 04:49:36;;;;;;;0.30;0.30;;;;;;;;;;4928351;29;20075;-62
2023/09/12 04:52:02;;;;;;;0.30;0.30;;;;;;;;;;4930561;29;20389;-59
2023/09/12 04:54:27;;;;;;;0.30;0.30;;;;;;;;;;4928130;29;20054;-61
2023/09/12 04:56:53;;;;;;;0.30;0.30;;;;;;;;;;4925625;29;20036;-64
2023/09/12 04:59:18;;;;;;;0.30;0.30;;;;;;;;;;4926421;29;20042;-61
2023/09/12 05:01:43;;;;;;;0.20;0.20;;;;;;;;;;4925199;29;20027;-61
2023/09/12 05:04:09;;;;;;;0.30;0.30;;;;;;;;;;4919734;29;20055;-63
2023/09/12 05:06:35;;;;;;;0.30;0.30;;;;;;;;;;4920398;29;20067;-62
2023/09/12 05:09:01;;;;;;;0.22;0.22;;;;;;;;;;4911679;29;20050;-58
2023/09/12 05:11:26;;;;;;;0.30;0.30;;;;;;;;;;4926856;29;20036;-59
2023/09/12 05:13:52;;;;;;;0.30;0.30;;;;;;;;;;4924470;29;20032;-60
2023/09/12 05:16:17;;;;;;;0.20;0.20;;;;;;;;;;4924652;29;20044;-65
2023/09/12 05:18:44;;;;;;;0.30;0.30;;;;;;;;;;4919936;29;20039;-61
2023/09/12 05:21:09;;;;;;;0.30;0.30;;;;;;;;;;4928289;29;20043;-61
2023/09/12 05:23:35;;;;;;;0.20;0.20;;;;;;;;;;4924631;29;20482;-60
2023/09/12 05:26:00;;;;;;;0.20;0.20;;;;;;;;;;4922680;29;20458;-62
2023/09/12 05:28:25;;;;;;;0.20;0.20;;;;;;;;;;4920535;29;20058;-63
2023/09/12 05:30:52;;;;;;;0.22;0.22;;;;;;;;;;4924124;29;20366;-60
2023/09/12 05:33:17;;;;;;;0.20;0.20;;;;;;;;;;4922486;29;20449;-60
2023/09/12 05:35:44;;;;;;;0.20;0.20;;;;;;;;;;4919944;29;20055;-60
2023/09/12 05:38:09;;;;;;;0.30;0.30;;;;;;;;;;4924671;29;20042;-65
2023/09/12 05:40:35;;;;;;;0.20;0.20;;;;;;;;;;4933052;28;20454;-64
2023/09/12 05:43:00;;;;;;;0.20;0.20;;;;;;;;;;4925200;29;20054;-60
2023/09/12 05:45:26;;;;;;;0.20;0.20;;;;;;;;;;4922498;29;20038;-59
2023/09/12 05:47:51;;;;;;;0.20;0.20;;;;;;;;;;4926706;29;20035;-63
2023/09/12 05:50:17;;;;;;;0.20;0.20;;;;;;;;;;4926539;29;20055;-61
2023/09/12 05:52:42;;;;;;;0.20;0.20;;;;;;;;;;4919649;29;20027;-60
2023/09/12 05:55:09;;;;;;;0.20;0.20;;;;;;;;;;4924503;29;20047;-59
2023/09/12 05:57:35;;;;;;;0.20;0.20;;;;;;;;;;4928993;29;20390;-59
2023/09/12 06:00:00;;;;;;;0.20;0.20;;;;;;;;;;4928827;29;20058;-63
2023/09/12 06:02:27;;;;;;;0.20;0.20;;;;;;;;;;4928219;29;20042;-61
2023/09/12 06:04:52;;;;;;;0.20;0.20;;;;;;;;;;4905957;29;20098;-59
2023/09/12 06:07:17;;;;;;;0.20;0.20;;;;;;;;;;4921730;29;20032;-64
2023/09/12 06:09:42;;;;;;;0.20;0.20;;;;;;;;;;4924522;29;20027;-62
2023/09/12 06:12:08;;;;;;;0.20;0.20;;;;;;;;;;4920787;29;20032;-60
2023/09/12 06:14:33;;;;;;;0.20;0.20;;;;;;;;;;4920866;29;20027;-61
2023/09/12 06:16:58;;;;;;;0.20;0.20;;;;;;;;;;4918167;29;20028;-59
2023/09/12 06:19:24;;;;;;;0.20;0.20;;;;;;;;;;4921748;29;20354;-60
2023/09/12 06:21:49;;;;;;;0.10;0.10;;;;;;;;;;4919268;29;20032;-60
2023/09/12 06:28:05;;;;;;;0.20;0.20;;;;;;;;;;4912215;29;20039;-61
2023/09/12 06:30:30;;;;;;;0.20;0.20;;;;;;;;;;4921517;29;20107;-60
2023/09/12 06:32:55;;;;;;;0.20;0.20;;;;;;;;;;4919206;28;20075;-61
2023/09/12 06:35:21;;;;;;;0.20;0.20;;;;;;;;;;4917634;29;20044;-61
2023/09/12 06:37:47;;;;;;;0.20;0.20;;;;;;;;;;4916448;29;20035;-64
2023/09/12 06:40:12;;;;;;;0.20;0.20;;;;;;;;;;4922360;29;20047;-64
2023/09/12 06:42:37;;;;;;;0.10;0.10;;;;;;;;;;4926145;29;20067;-60
2023/09/12 06:45:03;;;;;;;0.10;0.10;;;;;;;;;;4916962;29;20036;-60
2023/09/12 06:47:28;;;;;;;0.20;0.20;;;;;;;;;;4919827;29;20039;-60
2023/09/12 06:49:53;;;;;;;0.20;0.20;;;;;;;;;;4920641;29;20079;-60
2023/09/12 06:52:19;;;;;;;0.10;0.10;;;;;;;;;;4918201;29;20036;-61
2023/09/12 06:58:12;;;;;;;0.10;0.10;;;;;;;;;;4886669;28;20039;-64
2023/09/12 07:00:37;;;;;;;0.10;0.10;;;;;;;;;;4902322;29;20024;-61
2023/09/12 07:03:03;;;;;;;0.10;0.10;;;;;;;;;;4883759;29;20047;-64
2023/09/12 07:05:28;;;;;;;0.10;0.10;;;;;;;;;;4875275;29;20110;-63
2023/09/12 07:07:54;;;;;;;0.10;0.10;;;;;;;;;;4879533;29;20889;-63
2023/09/12 07:10:19;;;;;;;0.10;0.10;;;;;;;;;;4880993;29;20024;-65
2023/09/12 07:12:44;;;;;;;0.10;0.10;;;;;;;;;;4880307;29;20048;-64
2023/09/12 07:15:10;;;;;;;0.20;0.20;;;;;;;;;;4877438;29;20043;-64
2023/09/12 07:17:35;;;;;;;0.10;0.10;;;;;;;;;;4877290;29;20056;-65
2023/09/12 07:20:01;;;;;;;0.10;0.10;;;;;;;;;;4878130;29;20696;-63
2023/09/12 07:22:26;;;;;;;0.10;0.10;;;;;;;;;;4877230;29;20039;-63
2023/09/12 07:24:51;;;;;;;0.20;0.20;;;;;;;;;;4876655;29;20019;-65
2023/09/12 07:27:17;;;;;;;0.10;0.10;;;;;;;;;;4877448;29;20043;-62
2023/09/12 07:29:42;;;;;;;0.10;0.10;;;;;;;;;;4906727;28;20035;-63
2023/09/12 07:32:07;;;;;;;0.10;0.10;;;;;;;;;;4878389;29;20121;-63
2023/09/12 07:34:33;;;;;;;0.10;0.10;;;;;;;;;;4877036;29;20028;-63
2023/09/12 07:36:58;;;;;;;0.10;0.10;;;;;;;;;;4879460;29;20035;-64
2023/09/12 07:39:23;;;;;;;0.10;0.10;;;;;;;;;;4879477;29;20580;-63
2023/09/12 07:41:49;;;;;;;0.10;0.10;;;;;;;;;;4878784;29;20847;-63
2023/09/12 07:44:16;;;;;;;0.10;0.10;;;;;;;;;;4881136;29;20161;-64
2023/09/12 07:46:41;;;;;;;0.10;0.10;;;;;;;;;;4877052;29;20661;-62
2023/09/12 07:49:09;;;;;;;0.10;0.10;;;;;;;;;;4877552;29;20127;-63
2023/09/12 07:51:34;;;;;;;0.10;0.10;;;;;;;;;;4875541;29;20074;-64
2023/09/12 07:54:00;;;;;;;0.00;0.00;;;;;;;;;;4874535;29;20804;-62
2023/09/12 07:56:25;;;;;;;0.10;0.10;;;;;;;;;;4875926;29;20071;-63
2023/09/12 07:58:50;;;;;;;0.10;0.10;;;;;;;;;;4877274;29;20024;-64
2023/09/12 08:01:16;;;;;;;0.10;0.10;;;;;;;;;;4878229;29;20043;-63
2023/09/12 08:03:42;;;;;;;0.10;0.10;;;;;;;;;;4880193;29;20715;-63
2023/09/12 08:06:07;;;;;;;0.00;0.00;;;;;;;;;;4878655;29;20118;-63
2023/09/12 08:08:32;;;;;;;0.10;0.10;;;;;;;;;;4877134;29;20945;-63
2023/09/12 08:10:57;;;;;;;0.00;0.00;;;;;;;;;;4879466;29;20529;-63
2023/09/12 08:13:26;;;;;;;0.00;0.00;;;;;;;;;;4879790;29;20044;-63
2023/09/12 08:15:51;;;;;;;0.00;0.00;;;;;;;;;;4881213;29;20100;-64
2023/09/12 08:18:17;;;;;;;0.00;0.00;;;;;;;;;;4880085;29;20165;-63
2023/09/12 08:20:43;;;;;;;0.10;0.10;;;;;;;;;;4878136;29;20032;-63
2023/09/12 08:23:08;;;;;;;0.00;0.00;;;;;;;;;;4909600;28;20105;-65
2023/09/12 08:25:33;;;;;;;0.00;0.00;;;;;;;;;;4876672;29;20044;-63
2023/09/12 08:27:59;;;;;;;0.00;0.00;;;;;;;;;;4881759;29;20390;-63
2023/09/12 08:30:25;;;;;;;0.00;0.00;;;;;;;;;;4878103;29;20561;-62
2023/09/12 08:32:51;;;;;;;0.00;0.00;;;;;;;;;;4878776;29;20135;-64
2023/09/12 08:35:16;;;;;;;0.00;0.00;;;;;;;;;;4898244;29;20154;-58
2023/09/12 08:37:41;;;;;;;0.00;0.00;;;;;;;;;;4903533;29;20501;-60
2023/09/12 08:40:08;;;;;;;0.00;0.00;;;;;;;;;;4894319;29;20017;-61
2023/09/12 08:42:41;;;;;;;0.00;0.00;;;;;;;;;;4897222;29;20047;-59
2023/09/12 08:45:11;;;;;;;0.00;0.00;;;;;;;;;;4892228;29;20037;-59
2023/09/12 08:47:38;;;;;;;0.00;0.00;;;;;;;;;;4899177;29;20088;-61
2023/09/12 08:50:04;;;;;;;0.00;0.00;;;;;;;;;;4898611;29;20107;-59
2023/09/12 08:52:29;;;;;;;0.00;0.00;;;;;;;;;;4896805;29;20124;-59
2023/09/12 08:54:55;;;;;;;0.00;0.00;;;;;;;;;;4899963;29;20044;-60
2023/09/12 08:57:21;;;;;;;0.00;0.00;;;;;;;;;;4898049;29;20039;-59
2023/09/12 08:59:47;;;;;;;0.00;0.00;;;;;;;;;;4905876;29;20033;-58
2023/09/12 09:02:13;;;;;;;0.00;0.00;;;;;;;;;;4903564;29;20064;-58
2023/09/12 09:04:39;;;;;;;0.00;0.00;;;;;;;;;;4900656;29;20080;-59
2023/09/12 09:07:05;;;;;;;0.00;0.00;;;;;;;;;;4902385;29;20088;-58
2023/09/12 09:09:31;;;;;;;0.00;0.00;;;;;;;;;;4899765;29;20107;-59
2023/09/12 09:11:56;;;;;;;0.00;0.00;;;;;;;;;;4910323;29;20284;-59
2023/09/12 09:14:21;;;;;;;0.00;0.00;;;;;;;;;;4900403;29;20048;-62
2023/09/12 09:16:47;;;;;;;0.00;0.00;;;;;;;;;;4901773;29;20047;-60
2023/09/12 09:19:12;;;;;;;0.00;0.00;;;;;;;;;;4899768;29;20097;-60
2023/09/12 09:21:40;;;;;;;0.00;0.00;;;;;;;;;;4901237;29;20486;-59
2023/09/12 09:24:10;;;;;;;0.00;0.00;;;;;;;;;;4901647;29;20470;-58
2023/09/12 09:26:41;;;;;;;0.00;0.00;;;;;;;;;;4902613;29;20264;-60
2023/09/12 09:29:08;;;;;;;0.00;0.00;;;;;;;;;;4904425;29;20095;-61
2023/09/12 09:31:34;;;;;;;0.00;0.00;;;;;;;;;;4899313;29;20052;-62
2023/09/12 09:34:01;;;;;;;0.00;0.00;;;;;;;;;;4897673;29;20084;-62
2023/09/12 09:36:26;;;;;;;0.00;0.00;;;;;;;;;;4903740;29;20399;-60
2023/09/12 09:38:51;;;;;;;0.00;0.00;;;;;;;;;;4900535;29;20545;-60
2023/09/12 09:41:20;;;;;;;0.00;0.00;;;;;;;;;;4904139;29;20028;-59
2023/09/12 09:43:45;;;;;;;0.00;0.00;;;;;;;;;;4904316;29;20032;-62
2023/09/12 09:46:15;;;;;;;0.00;0.00;;;;;;;;;;4901361;29;20518;-61
2023/09/12 09:48:48;;;;;;;0.00;0.00;;;;;;;;;;4901082;29;20033;-62
2023/09/12 09:51:13;;;;;;;0.00;0.00;;;;;;;;;;4897753;29;20033;-63
2023/09/12 09:53:39;;;;;;;0.00;0.00;;;;;;;;;;4899443;29;20458;-60
2023/09/12 09:56:09;;;;;;;0.00;0.00;;;;;;;;;;4936354;28;20106;-61
2023/09/12 09:58:35;;;;;;;0.00;0.00;;;;;;;;;;4931545;28;20510;-60
2023/09/12 10:01:01;;;;;;;0.00;0.00;;;;;;;;;;4898590;29;20040;-61
2023/09/12 10:03:28;;;;;;;0.00;0.00;;;;;;;;;;4899481;29;20040;-62
2023/09/12 10:05:55;;;;;;;0.00;0.00;;;;;;;;;;4897523;29;20081;-62
2023/09/12 10:08:21;;;;;;;0.00;0.00;;;;;;;;;;4898579;29;20025;-59
2023/09/12 10:10:47;;;;;;;0.00;0.00;;;;;;;;;;4898055;29;20040;-62
2023/09/12 10:13:14;;;;;;;0.00;0.00;;;;;;;;;;4895808;29;20573;-59
2023/09/12 10:15:39;;;;;;;;;;;;;;;;;;4902230;29;20032;-62
2023/09/12 10:18:08;;;;;;;0.00;0.00;;;;;;;;;;4926783;28;19970;-60
2023/09/12 10:20:35;;;;;;;0.00;0.00;;;;;;;;;;4894969;29;20037;-62
2023/09/12 10:23:08;;;;;;;0.00;0.00;;;;;;;;;;4897517;29;20044;-61
2023/09/12 10:25:35;;;;;;;0.00;0.00;;;;;;;;;;4898669;29;20040;-61
2023/09/12 10:28:01;;;;;;;0.00;0.00;;;;;;;;;;4900717;29;20032;-61
2023/09/12 10:30:26;;;;;;;0.00;0.00;;;;;;;;;;4898418;29;20039;-59
2023/09/12 10:32:52;;;;;;;0.00;0.00;;;;;;;;;;4894211;29;20033;-60
2023/09/12 10:35:17;;;;;;;0.00;0.00;;;;;;;;;;4899205;29;20457;-61
2023/09/12 10:37:44;;;;;;;0.00;0.00;;;;;;;;;;4901723;29;20057;-60
2023/09/12 10:40:10;;;;;;;0.00;0.00;;;;;;;;;;4899074;29;20034;-61
2023/09/12 10:42:36;;;;;;;0.00;0.00;;;;;;;;;;4927718;28;20044;-60
2023/09/12 10:45:05;;;;;;;0.00;0.00;;;;;;;;;;4929523;28;20052;-63
2023/09/12 10:47:31;;;;;;;0.00;0.00;;;;;;;;;;4899979;29;20032;-59
2023/09/12 10:49:57;;;;;;;0.00;0.00;;;;;;;;;;4898809;29;20490;-60
2023/09/12 10:52:29;;;;;;;0.00;0.00;;;;;;;;;;4899499;29;20164;-63
2023/09/12 10:54:55;;;;;;;0.00;0.00;;;;;;;;;;4909943;29;20047;-64
2023/09/12 10:57:20;;;;;;;0.00;0.00;;;;;;;;;;4898753;29;20083;-63
2023/09/12 11:00:02;;;;;;;0.00;0.00;;;;;;;;;;4896543;29;20048;-61
2023/09/12 11:02:34;;;;;;;0.00;0.00;;;;;;;;;;4898103;29;20040;-61
2023/09/12 11:05:00;;;;;;;0.00;0.00;;;;;;;;;;4897893;29;20372;-60
2023/09/12 11:07:32;;;;;;;0.00;0.00;;;;;;;;;;4899868;29;20126;-63
2023/09/12 11:10:19;;;;;;;0.00;0.00;;;;;;;;;;4898923;29;20048;-62
2023/09/12 11:12:45;;;;;;;0.00;0.00;;;;;;;;;;4931589;28;20394;-60
2023/09/12 11:15:11;;;;;;;0.00;0.00;;;;;;;;;;4901264;29;20029;-60
2023/09/12 11:17:46;;;;;;;0.00;0.00;;;;;;;;;;4903354;29;20067;-59
2023/09/12 11:20:12;;;;;;;0.00;0.00;;;;;;;;;;4900903;29;20032;-60
2023/09/12 11:22:39;;;;;;;0.00;0.00;;;;;;;;;;4929749;28;20036;-61
2023/09/12 11:25:05;;;;;;;0.00;0.00;;;;;;;;;;4900510;29;20051;-63
2023/09/12 11:27:31;;;;;;;0.00;0.00;;;;;;;;;;4902398;29;20051;-61
2023/09/12 11:30:03;;;;;;;0.00;0.00;;;;;;;;;;4902836;29;20470;-61
2023/09/12 11:32:34;;;;;;;0.00;0.00;;;;;;;;;;4928586;28;20075;-61
2023/09/12 11:35:04;;;;;;;0.00;0.00;;;;;;;;;;4898459;29;20036;-59
2023/09/12 11:37:30;;;;;;;0.00;0.00;;;;;;;;;;4905682;29;20044;-59
2023/09/12 11:39:57;;;;;;;0.00;0.00;;;;;;;;;;4903943;29;20137;-59
2023/09/12 11:42:25;;;;;;;0.00;0.00;;;;;;;;;;4927675;28;20036;-59
2023/09/12 11:44:50;;;;;;;0.00;0.00;;;;;;;;;;4900467;29;20044;-58
2023/09/12 11:47:16;;;;;;;0.00;0.00;;;;;;;;;;4895171;29;20066;-61
2023/09/12 11:49:41;;;;;;;0.00;0.00;;;;;;;;;;4901004;29;20032;-59
2023/09/12 11:52:12;;;;;;;0.00;0.00;;;;;;;;;;4898404;29;20092;-59
2023/09/12 11:54:38;;;;;;;0.00;0.00;;;;;;;;;;4897279;29;20047;-60
2023/09/12 11:57:03;;;;;;;0.00;0.00;;;;;;;;;;4901506;29;20115;-62
2023/09/12 11:59:29;;;;;;;0.00;0.00;;;;;;;;;;4901548;29;20451;-59
2023/09/12 12:01:55;;;;;;;0.00;0.00;;;;;;;;;;4900379;29;20024;-61
2023/09/12 12:04:21;;;;;;;0.00;0.00;;;;;;;;;;4897853;29;20079;-60
2023/09/12 12:06:47;;;;;;;0.00;0.00;;;;;;;;;;4899324;29;20039;-60
2023/09/12 12:09:13;;;;;;;0.00;0.00;;;;;;;;;;4899981;29;20032;-61
2023/09/12 12:11:39;;;;;;;0.00;0.00;;;;;;;;;;4896994;29;20124;-59
2023/09/12 12:14:15;;;;;;;0.00;0.00;;;;;;;;;;4898275;29;20127;-59
2023/09/12 12:16:43;;;;;;;0.00;0.00;;;;;;;;;;4900467;29;20467;-59
2023/09/12 12:19:12;;;;;;;0.00;0.00;;;;;;;;;;4900907;29;20036;-59
2023/09/12 12:21:39;;;;;;;0.00;0.00;;;;;;;;;;4896454;29;20048;-60
2023/09/12 12:24:05;;;;;;;0.00;0.00;;;;;;;;;;4896203;29;20129;-60
2023/09/12 12:26:30;;;;;;;0.00;0.00;;;;;;;;;;4897704;29;20125;-61
2023/09/12 12:28:56;;;;;;;0.00;0.00;;;;;;;;;;4899591;29;20092;-60
2023/09/12 12:31:24;;;;;;;0.00;0.00;;;;;;;;;;4898900;29;20148;-61
2023/09/12 12:33:50;;;;;;;0.00;0.00;;;;;;;;;;4900105;29;20051;-60
2023/09/12 12:36:15;;;;;;;0.00;0.00;;;;;;;;;;4901055;29;20032;-60
2023/09/12 12:38:43;;;;;;;0.00;0.00;;;;;;;;;;4898299;29;20475;-61
2023/09/12 12:41:08;;;;;;;0.00;0.00;;;;;;;;;;4901304;29;20044;-61
2023/09/12 12:43:34;;;;;;;0.00;0.00;;;;;;;;;;4903718;29;20047;-60
2023/09/12 12:45:59;;;;;;;0.00;0.00;;;;;;;;;;4931697;28;20478;-61
2023/09/12 12:48:35;;;;;;;0.00;0.00;;;;;;;;;;4901986;29;20955;-64
2023/09/12 12:51:12;;;;;;;0.00;0.00;;;;;;;;;;4906563;29;20040;-61
2023/09/12 12:53:38;;;;;;;0.00;0.00;;;;;;;;;;4902841;29;20260;-61
2023/09/12 12:56:04;;;;;;;0.00;0.00;;;;;;;;;;4901811;29;20024;-61
2023/09/12 12:58:29;;;;;;;0.00;0.00;;;;;;;;;;4899895;29;20418;-62
2023/09/12 13:00:54;;;;;;;0.00;0.00;;;;;;;;;;4899797;29;20739;-60
2023/09/12 13:03:20;;;;;;;0.00;0.00;;;;;;;;;;4929086;28;20461;-62
2023/09/12 13:05:45;;;;;;;0.00;0.00;;;;;;;;;;4902521;29;20379;-60
2023/09/12 13:08:10;;;;;;;0.00;0.00;;;;;;;;;;4904629;29;20024;-60
2023/09/12 13:10:36;;;;;;;0.00;0.00;;;;;;;;;;4905365;29;20032;-60
2023/09/12 13:13:03;;;;;;;0.00;0.00;;;;;;;;;;4931562;28;20033;-62
2023/09/12 13:15:29;;;;;;;0.00;0.00;;;;;;;;;;4921444;29;20079;-62
2023/09/12 13:17:54;;;;;;;0.00;0.00;;;;;;;;;;4898756;29;20123;-59
2023/09/12 13:20:20;;;;;;;0.00;0.00;;;;;;;;;;4900700;29;20032;-61
2023/09/12 13:22:45;;;;;;;0.00;0.00;;;;;;;;;;4902647;29;20077;-62
2023/09/12 13:25:11;;;;;;;0.00;0.00;;;;;;;;;;4900914;29;20135;-60
2023/09/12 13:27:36;;;;;;;0.00;0.00;;;;;;;;;;4897831;29;20056;-61
2023/09/12 13:30:01;;;;;;;0.00;0.00;;;;;;;;;;4899260;29;20060;-64
2023/09/12 13:32:27;;;;;;;0.00;0.00;;;;;;;;;;4901287;29;20031;-61
2023/09/12 13:34:52;;;;;;;0.00;0.00;;;;;;;;;;4901541;29;20032;-60
2023/09/12 13:37:19;;;;;;;0.00;0.00;;;;;;;;;;4900353;29;20557;-60
2023/09/12 13:39:49;;;;;;;0.00;0.00;;;;;;;;;;4903264;29;20395;-61
2023/09/12 13:42:18;;;;;;;0.00;0.00;;;;;;;;;;4906246;29;20065;-60
2023/09/12 13:44:43;;;;;;;0.00;0.00;;;;;;;;;;4901261;29;20495;-61
2023/09/12 13:47:09;;;;;;;0.00;0.00;;;;;;;;;;4899495;29;20036;-60
2023/09/12 13:49:34;;;;;;;0.00;0.00;;;;;;;;;;4902402;29;20501;-60
2023/09/12 13:51:59;;;;;;;0.00;0.00;;;;;;;;;;4901484;29;20486;-63
2023/09/12 13:54:25;;;;;;;0.00;0.00;;;;;;;;;;4902745;29;20044;-62
2023/09/12 13:56:50;;;;;;;0.00;0.00;;;;;;;;;;4901282;29;20598;-61
2023/09/12 13:59:16;;;;;;;0.00;0.00;;;;;;;;;;4906559;29;20040;-61
2023/09/12 14:01:41;;;;;;;0.00;0.00;;;;;;;;;;4900353;29;20036;-61
2023/09/12 14:04:06;;;;;;;0.00;0.00;;;;;;;;;;4902632;29;20040;-62
2023/09/12 14:06:32;;;;;;;0.00;0.00;;;;;;;;;;4900177;29;20035;-61
2023/09/12 14:08:58;;;;;;;0.00;0.00;;;;;;;;;;4899371;29;20402;-63
2023/09/12 14:11:23;;;;;;;0.00;0.00;;;;;;;;;;4898856;29;20043;-61
2023/09/12 14:13:48;;;;;;;0.00;0.00;;;;;;;;;;4903460;29;20044;-59
2023/09/12 14:16:14;;;;;;;0.00;0.00;;;;;;;;;;4900657;29;20039;-60
2023/09/12 14:18:39;;;;;;;0.00;0.00;;;;;;;;;;4931310;29;20027;-60
2023/09/12 14:21:04;;;;;;;0.00;0.00;;;;;;;;;;4902022;29;20115;-60
2023/09/12 14:23:29;;;;;;;0.00;0.00;;;;;;;;;;4903714;29;20052;-60
2023/09/12 14:25:55;;;;;;;0.00;0.00;;;;;;;;;;4906001;29;20059;-61
2023/09/12 14:28:20;;;;;;;0.00;0.00;;;;;;;;;;4930191;28;20047;-60
2023/09/12 14:30:46;;;;;;;0.00;0.00;;;;;;;;;;4899770;29;20032;-61
2023/09/12 14:33:12;;;;;;;0.00;0.00;;;;;;;;;;4904159;29;20028;-60
2023/09/12 14:35:37;;;;;;;0.00;0.00;;;;;;;;;;4903533;29;20040;-61
2023/09/12 14:38:04;;;;;;;0.00;0.00;;;;;;;;;;4927476;28;20040;-59
2023/09/12 14:40:29;;;;;;;0.00;0.00;;;;;;;;;;4900271;29;20654;-60
2023/09/12 14:42:54;;;;;;;0.00;0.00;;;;;;;;;;4899203;29;20030;-59